Time;durP1;ratioP1;P1;durP2;ratioP2;P2;SDS_P1;SDS_P2;PMS_P1;PMS_P2;Temp;Humidity;BMP_temperature;BMP_pressure;BME280_temperature;BME280_humidity;BME280_pressure;Samples;Min_cycle;Max_cycle;Signal;HPM_P1;HPM_P2
2024/02/19 00:01:00;;;;;;;34.90;17.90;;;;;;;1.41;88.90;101660.14;105988;1257;101426;-79
2024/02/19 00:03:49;;;;;;;34.20;19.00;;;;;;;1.40;88.96;101647.68;105798;1264;99148;-78
2024/02/19 00:06:34;;;;;;;33.00;18.30;;;;;;;1.39;89.01;101639.87;105661;1262;98799;-80
2024/02/19 00:09:20;;;;;;;32.50;19.40;;;;;;;1.36;89.05;101627.73;105924;1259;97782;-79
2024/02/19 00:12:07;;;;;;;32.70;18.30;;;;;;;1.35;89.28;101622.35;105907;1257;98986;-78
2024/02/19 00:14:52;;;;;;;34.70;18.80;;;;;;;1.33;89.20;101614.23;105884;1258;101336;-78
2024/02/19 00:17:38;;;;;;;27.60;17.40;;;;;;;1.32;89.42;101615.92;105870;1257;100046;-79
2024/02/19 00:20:24;;;;;;;32.00;18.40;;;;;;;1.30;89.51;101625.70;105964;1257;99271;-79
2024/02/19 00:23:09;;;;;;;29.70;18.00;;;;;;;1.31;89.58;101625.83;107848;1258;97871;-79
2024/02/19 00:25:55;;;;;;;34.20;16.80;;;;;;;1.32;89.78;101617.80;105963;1257;97912;-79
2024/02/19 00:28:41;;;;;;;32.00;18.20;;;;;;;1.35;89.91;101620.10;105956;1257;102706;-78
2024/02/19 00:31:27;;;;;;;29.30;17.30;;;;;;;1.34;89.74;101618.39;105926;1262;99210;-79
2024/02/19 00:34:13;;;;;;;30.70;17.20;;;;;;;1.35;89.91;101614.43;105984;1262;108184;-78
2024/02/19 00:36:58;;;;;;;35.90;18.50;;;;;;;1.37;89.93;101612.40;105468;1262;98071;-78
2024/02/19 00:39:44;;;;;;;34.90;19.50;;;;;;;1.38;89.95;101600.71;106118;1258;97973;-80
2024/02/19 00:42:29;;;;;;;36.70;18.00;;;;;;;1.37;90.02;101593.52;106035;1257;101414;-77
2024/02/19 00:45:15;;;;;;;32.30;18.30;;;;;;;1.36;90.03;101579.34;106004;1257;100265;-78
2024/02/19 00:48:00;;;;;;;31.00;17.10;;;;;;;1.35;90.12;101570.11;105893;1258;97843;-77
2024/02/19 00:50:46;;;;;;;35.70;18.90;;;;;;;1.36;90.35;101562.27;105353;1259;98044;-78
2024/02/19 00:53:31;;;;;;;32.20;18.70;;;;;;;1.36;90.36;101558.09;105799;1257;99257;-78
2024/02/19 00:56:17;;;;;;;32.20;17.90;;;;;;;1.34;90.43;101554.70;105948;1257;101918;-80
2024/02/19 00:59:03;;;;;;;32.90;18.90;;;;;;;1.31;90.45;101553.14;105943;1262;99088;-78
2024/02/19 01:01:49;;;;;;;38.70;20.30;;;;;;;1.29;90.57;101550.28;105744;1257;99112;-79
2024/02/19 01:04:35;;;;;;;33.90;18.10;;;;;;;1.31;90.84;101547.17;105885;1261;97776;-78
2024/02/19 01:07:21;;;;;;;28.80;17.00;;;;;;;1.32;90.96;101539.73;105964;1261;99547;-78
2024/02/19 01:10:07;;;;;;;32.70;17.40;;;;;;;1.32;91.02;101530.04;105757;1257;101546;-80
2024/02/19 01:12:53;;;;;;;33.00;18.20;;;;;;;1.31;91.05;101526.20;106021;1262;99031;-79
2024/02/19 01:15:38;;;;;;;31.20;18.20;;;;;;;1.31;91.07;101525.38;106030;1262;99007;-78
2024/02/19 01:18:24;;;;;;;34.00;16.40;;;;;;;1.30;91.08;101520.16;105908;1258;97958;-79
2024/02/19 01:21:10;;;;;;;33.10;19.10;;;;;;;1.29;91.05;101518.78;106054;1257;97886;-79
2024/02/19 01:23:56;;;;;;;31.10;16.80;;;;;;;1.29;91.05;101508.81;105861;1262;101404;-79
2024/02/19 01:26:42;;;;;;;30.00;18.30;;;;;;;1.27;91.07;101505.77;106000;1258;99100;-79
2024/02/19 01:29:27;;;;;;;32.60;17.80;;;;;;;1.25;91.08;101500.58;105864;1264;97922;-80
2024/02/19 01:32:13;;;;;;;33.00;16.70;;;;;;;1.25;91.21;101494.10;105966;1257;97973;-78
2024/02/19 01:34:59;;;;;;;29.10;16.90;;;;;;;1.26;91.32;101487.54;105784;1263;97904;-80
2024/02/19 01:37:45;;;;;;;27.90;16.00;;;;;;;1.25;91.19;101482.09;105877;1258;102698;-79
2024/02/19 01:40:31;;;;;;;27.10;16.00;;;;;;;1.25;91.26;101480.55;105817;1257;146008;-79
2024/02/19 01:43:16;;;;;;;29.20;15.40;;;;;;;1.25;91.34;101477.92;105713;1263;98988;-79
2024/02/19 01:46:01;;;;;;;23.10;14.90;;;;;;;1.26;91.33;101475.00;105788;1258;97927;-77
2024/02/19 01:48:47;;;;;;;24.60;14.10;;;;;;;1.27;91.28;101468.95;105911;1257;98498;-78
2024/02/19 01:51:34;;;;;;;22.50;12.80;;;;;;;1.29;91.22;101469.90;105826;1262;102704;-78
2024/02/19 01:54:20;;;;;;;27.10;14.00;;;;;;;1.31;91.17;101465.71;105894;1261;99106;-77
2024/02/19 01:57:07;;;;;;;23.80;13.80;;;;;;;1.33;91.00;101465.91;105759;1261;97904;-78
2024/02/19 01:59:54;;;;;;;24.70;13.30;;;;;;;1.33;90.92;101463.93;105973;1257;97891;-78
2024/02/19 02:02:40;;;;;;;25.00;13.70;;;;;;;1.34;90.86;101458.43;105968;1262;97895;-80
2024/02/19 02:05:25;;;;;;;21.50;12.40;;;;;;;1.35;90.76;101453.26;105801;1261;101461;-78
2024/02/19 02:08:11;;;;;;;21.70;12.60;;;;;;;1.37;90.59;101448.01;106017;1262;99299;-78
2024/02/19 02:10:57;;;;;;;21.30;12.90;;;;;;;1.38;90.53;101441.27;105883;1262;98045;-78
2024/02/19 02:13:42;;;;;;;23.10;13.50;;;;;;;1.38;90.40;101437.02;105726;1257;97973;-78
2024/02/19 02:16:30;;;;;;;25.10;13.10;;;;;;;1.37;90.32;101429.73;105458;1260;98566;-78
2024/02/19 02:19:16;;;;;;;21.90;12.00;;;;;;;1.36;90.17;101420.34;105345;1262;101390;-78
2024/02/19 02:22:02;;;;;;;21.60;12.90;;;;;;;1.35;90.20;101412.23;105383;1258;100822;-77
2024/02/19 02:24:48;;;;;;;26.40;12.60;;;;;;;1.34;90.27;101404.40;105945;1262;99247;-78
2024/02/19 02:27:33;;;;;;;22.60;12.00;;;;;;;1.33;90.15;101404.70;105796;1262;97853;-77
2024/02/19 02:30:19;;;;;;;21.80;12.40;;;;;;;1.31;90.07;101398.30;105608;1257;98572;-78
2024/02/19 02:33:04;;;;;;;22.20;12.00;;;;;;;1.30;90.19;101390.84;105835;1262;102595;-79
2024/02/19 02:35:50;;;;;;;21.20;11.90;;;;;;;1.28;90.17;101382.33;105451;1262;100418;-78
2024/02/19 02:38:36;;;;;;;23.60;12.10;;;;;;;1.28;90.34;101373.71;105536;1257;97961;-79
2024/02/19 02:41:21;;;;;;;22.20;11.50;;;;;;;1.29;90.38;101366.95;105551;1262;97942;-79
2024/02/19 02:44:08;;;;;;;20.60;11.90;;;;;;;1.28;90.35;101364.77;105906;1262;97954;-78
2024/02/19 02:46:53;;;;;;;24.00;12.70;;;;;;;1.26;90.31;101372.45;105939;1262;102151;-78
2024/02/19 02:49:38;;;;;;;21.10;11.60;;;;;;;1.25;90.34;101372.04;105656;1261;100415;-78
2024/02/19 02:52:24;;;;;;;24.90;13.60;;;;;;;1.23;90.35;101363.34;105964;1261;97964;-79
2024/02/19 02:55:10;;;;;;;24.80;13.40;;;;;;;1.21;90.37;101346.77;106026;1262;97932;-78
2024/02/19 02:57:55;;;;;;;20.20;11.70;;;;;;;1.20;90.44;101337.88;105929;1258;97859;-79
2024/02/19 03:00:41;;;;;;;28.70;15.60;;;;;;;1.20;90.49;101350.54;105906;1262;101409;-77
2024/02/19 03:03:32;;;;;;;21.80;12.90;;;;;;;1.19;90.53;101364.37;105988;1262;99168;-79
2024/02/19 03:06:18;;;;;;;21.80;12.40;;;;;;;1.19;90.66;101360.30;105959;1259;99502;-79
2024/02/19 03:09:05;;;;;;;17.40;11.00;;;;;;;1.20;90.69;101348.94;105975;1257;97970;-79
2024/02/19 03:11:51;;;;;;;18.30;11.80;;;;;;;1.21;90.79;101341.11;105988;1257;98425;-79
2024/02/19 03:14:37;;;;;;;21.00;12.40;;;;;;;1.22;90.71;101341.80;105937;1262;101851;-79
2024/02/19 03:17:22;;;;;;;19.60;11.40;;;;;;;1.21;90.76;101336.71;105880;1262;99234;-78
2024/02/19 03:20:13;;;;;;;21.60;12.30;;;;;;;1.22;90.74;101333.02;106006;1257;98012;-79
2024/02/19 03:22:58;;;;;;;18.60;12.00;;;;;;;1.21;90.54;101325.34;106642;1257;97981;-79
2024/02/19 03:25:44;;;;;;;21.70;12.00;;;;;;;1.19;90.54;101309.11;106027;1258;98493;-79
2024/02/19 03:28:30;;;;;;;23.90;12.50;;;;;;;1.17;90.45;101293.22;105736;1262;101408;-78
2024/02/19 03:31:16;;;;;;;18.70;12.40;;;;;;;1.14;90.41;101285.38;105507;1262;99376;-78
2024/02/19 03:34:02;;;;;;;20.40;12.20;;;;;;;1.10;90.42;101281.47;105890;1262;97970;-78
2024/02/19 03:36:50;;;;;;;23.10;13.70;;;;;;;1.08;90.48;101278.43;105935;1262;97884;-80
2024/02/19 03:39:36;;;;;;;21.30;13.20;;;;;;;1.08;90.48;101283.73;105943;1259;97986;-80
2024/02/19 03:42:21;;;;;;;24.00;13.10;;;;;;;1.05;90.53;101289.23;105917;1262;101385;-78
2024/02/19 03:45:07;;;;;;;22.20;12.30;;;;;;;1.00;90.69;101281.98;106006;1259;99092;-79
2024/02/19 03:47:53;;;;;;;22.70;12.10;;;;;;;0.99;90.73;101276.23;106823;1257;99085;-78
2024/02/19 03:50:38;;;;;;;21.50;12.50;;;;;;;0.99;90.69;101274.34;106015;1257;98063;-79
2024/02/19 03:53:24;;;;;;;20.90;11.10;;;;;;;0.98;90.88;101269.80;106042;1262;98434;-78
2024/02/19 03:56:10;;;;;;;21.20;12.10;;;;;;;0.99;90.98;101252.85;105982;1258;101324;-79
2024/02/19 03:58:55;;;;;;;18.90;11.10;;;;;;;1.00;91.00;101243.67;105925;1262;99175;-78
2024/02/19 04:01:41;;;;;;;19.10;11.50;;;;;;;0.99;91.21;101249.67;105951;1258;98584;-79
2024/02/19 04:04:27;;;;;;;18.50;11.20;;;;;;;1.00;91.23;101252.77;105838;1257;98015;-79
2024/02/19 04:07:12;;;;;;;22.90;13.30;;;;;;;1.01;91.15;101237.61;106023;1261;97973;-78
2024/02/19 04:09:58;;;;;;;20.20;11.90;;;;;;;1.00;91.14;101239.27;105974;1260;102667;-79
2024/02/19 04:12:43;;;;;;;23.00;12.70;;;;;;;1.00;91.28;101245.73;105932;1259;99080;-79
2024/02/19 04:15:30;;;;;;;20.70;12.50;;;;;;;1.01;91.38;101237.95;105965;1257;98572;-78
2024/02/19 04:18:15;;;;;;;20.50;12.00;;;;;;;1.02;91.49;101224.34;105961;1257;99167;-77
2024/02/19 04:21:01;;;;;;;20.70;11.60;;;;;;;1.03;91.45;101214.42;105955;1262;97836;-79
2024/02/19 04:23:46;;;;;;;19.50;12.00;;;;;;;1.03;91.46;101202.79;105998;1257;103134;-78
2024/02/19 04:26:32;;;;;;;21.80;12.50;;;;;;;1.02;91.43;101190.60;105887;1257;99248;-78
2024/02/19 04:29:18;;;;;;;22.00;12.20;;;;;;;1.01;91.44;101185.05;105935;1257;97918;-79
2024/02/19 04:32:03;;;;;;;19.80;12.60;;;;;;;0.99;91.58;101187.61;105955;1257;97973;-79
2024/02/19 04:34:49;;;;;;;16.70;10.60;;;;;;;0.97;91.61;101180.73;105966;1260;97993;-79
2024/02/19 04:37:35;;;;;;;24.50;14.00;;;;;;;0.97;91.77;101173.53;106038;1262;101410;-78
2024/02/19 04:40:21;;;;;;;21.00;13.70;;;;;;;0.98;91.78;101173.50;105956;1259;99199;-78
2024/02/19 04:43:06;;;;;;;18.70;11.90;;;;;;;0.96;91.69;101177.80;105856;1261;97993;-78
2024/02/19 04:45:52;;;;;;;18.40;12.20;;;;;;;0.94;91.77;101166.34;105866;1262;97990;-79
2024/02/19 04:48:37;;;;;;;20.00;12.20;;;;;;;0.93;91.79;101169.09;105951;1262;98024;-79
2024/02/19 04:51:23;;;;;;;20.70;12.30;;;;;;;0.93;92.06;101162.40;105867;1262;102643;-79
2024/02/19 04:54:08;;;;;;;23.60;14.40;;;;;;;0.95;92.08;101155.23;105917;1262;99445;-79
2024/02/19 04:56:54;;;;;;;19.50;12.80;;;;;;;0.95;92.09;101141.33;105914;1259;97921;-78
2024/02/19 04:59:40;;;;;;;20.40;13.50;;;;;;;0.95;92.17;101138.19;105719;1258;97997;-78
2024/02/19 05:02:25;;;;;;;22.80;12.70;;;;;;;0.94;92.29;101139.30;105865;1259;98174;-79
2024/02/19 05:05:11;;;;;;;17.00;11.40;;;;;;;0.94;92.40;101137.55;105977;1260;101390;-78
2024/02/19 05:07:57;;;;;;;18.30;10.90;;;;;;;0.93;92.54;101134.30;105899;1261;99806;-78
2024/02/19 05:10:43;;;;;;;21.80;12.70;;;;;;;0.92;92.55;101127.31;105863;1261;98977;-78
2024/02/19 05:13:33;;;;;;;20.20;12.30;;;;;;;0.92;92.79;101128.33;105882;1257;97949;-79
2024/02/19 05:16:18;;;;;;;19.90;12.60;;;;;;;0.93;92.78;101126.86;105938;1258;97964;-79
2024/02/19 05:19:04;;;;;;;20.70;13.00;;;;;;;0.94;92.86;101122.09;105638;1262;101466;-77
2024/02/19 05:21:49;;;;;;;23.30;14.60;;;;;;;0.95;93.02;101116.22;105690;1262;99144;-78
2024/02/19 05:24:34;;;;;;;22.90;12.40;;;;;;;0.97;93.03;101110.08;105782;1269;98854;-79
2024/02/19 05:27:22;;;;;;;21.90;12.70;;;;;;;0.97;93.11;101105.69;105908;1261;98476;-78
2024/02/19 05:30:08;;;;;;;20.30;12.80;;;;;;;0.95;93.05;101093.67;105944;1259;97952;-78
2024/02/19 05:32:54;;;;;;;19.90;13.20;;;;;;;0.94;93.06;101088.64;105879;1262;101430;-79
2024/02/19 05:35:39;;;;;;;24.70;13.50;;;;;;;0.94;93.08;101082.73;105885;1257;100274;-79
2024/02/19 05:38:25;;;;;;;22.30;12.90;;;;;;;0.93;93.20;101084.54;105790;1259;97912;-79
2024/02/19 05:41:11;;;;;;;21.10;13.40;;;;;;;0.92;93.35;101078.84;105903;1259;98046;-77
2024/02/19 05:43:56;;;;;;;22.50;14.10;;;;;;;0.91;93.29;101063.20;105936;1260;99719;-78
2024/02/19 05:46:43;;;;;;;22.50;13.90;;;;;;;0.90;93.31;101059.45;105892;1258;102376;-79
2024/02/19 05:49:28;;;;;;;21.60;14.30;;;;;;;0.88;93.48;101054.80;105855;1262;100385;-78
2024/02/19 05:52:14;;;;;;;24.80;13.40;;;;;;;0.87;93.56;101075.27;105897;1262;97964;-78
2024/02/19 05:55:02;;;;;;;20.00;12.70;;;;;;;0.87;93.78;101064.91;105804;1258;97971;-80
2024/02/19 05:57:48;;;;;;;22.80;13.70;;;;;;;0.87;93.87;101064.02;105919;1262;98547;-77
2024/02/19 06:00:34;;;;;;;24.40;14.50;;;;;;;0.88;94.01;101059.73;105754;1262;102209;-79
2024/02/19 06:03:21;;;;;;;23.50;13.70;;;;;;;0.89;93.98;101056.52;105845;1256;100167;-78
2024/02/19 06:06:06;;;;;;;23.10;13.70;;;;;;;0.90;94.07;101049.05;105920;1262;99308;-79
2024/02/19 06:08:52;;;;;;;18.40;12.90;;;;;;;0.93;94.13;101046.40;105840;1257;98304;-78
2024/02/19 06:11:44;;;;;;;20.90;13.20;;;;;;;0.95;94.04;101044.42;105858;1262;98836;-79
2024/02/19 06:14:30;;;;;;;20.70;14.50;;;;;;;0.97;93.97;101041.13;105328;1259;102598;-79
2024/02/19 06:17:16;;;;;;;21.90;13.80;;;;;;;0.97;93.99;101039.02;105883;1262;99700;-78
2024/02/19 06:20:02;;;;;;;24.80;16.20;;;;;;;0.97;94.01;101035.19;105784;1262;99948;-78
2024/02/19 06:22:47;;;;;;;24.80;15.80;;;;;;;0.98;94.17;101035.13;105323;1265;97979;-77
2024/02/19 06:25:33;;;;;;;24.90;13.80;;;;;;;0.99;94.03;101026.71;105438;1257;98476;-78
2024/02/19 06:28:20;;;;;;;27.60;15.20;;;;;;;1.00;94.13;101018.95;105328;1262;102686;-78
2024/02/19 06:31:05;;;;;;;22.10;14.20;;;;;;;1.00;94.24;101019.43;105649;1262;100394;-78
2024/02/19 06:33:51;;;;;;;22.70;15.30;;;;;;;1.00;94.14;101019.12;105286;1262;98568;-77
2024/02/19 06:36:37;;;;;;;21.90;14.50;;;;;;;1.00;94.06;101011.90;105890;1259;97983;-78
2024/02/19 06:39:22;;;;;;;18.60;12.80;;;;;;;0.99;94.18;101010.77;105857;1259;96130;-79
2024/02/19 06:42:08;;;;;;;23.90;14.30;;;;;;;0.97;94.19;101013.49;105812;1262;101356;-80
2024/02/19 06:44:53;;;;;;;25.20;14.90;;;;;;;0.97;94.40;101012.99;105659;1262;99661;-78
2024/02/19 06:47:40;;;;;;;24.30;13.80;;;;;;;0.98;94.42;101009.23;105239;1262;99490;-77
2024/02/19 06:50:26;;;;;;;23.90;15.50;;;;;;;1.00;94.61;101009.45;105458;1258;97982;-77
2024/02/19 06:53:12;;;;;;;30.10;17.30;;;;;;;1.01;94.53;101005.69;105819;1262;97921;-78
2024/02/19 06:55:58;;;;;;;30.20;17.40;;;;;;;1.02;94.47;101004.54;105869;1261;101374;-79
2024/02/19 06:58:44;;;;;;;22.10;14.30;;;;;;;1.02;94.54;101002.58;105766;1260;99696;-79
2024/02/19 07:01:30;;;;;;;25.10;14.90;;;;;;;1.04;94.77;101001.70;105896;1273;99022;-79
2024/02/19 07:04:15;;;;;;;20.80;13.50;;;;;;;1.09;94.78;101005.75;105671;1262;98834;-78
2024/02/19 07:07:01;;;;;;;20.80;12.50;;;;;;;1.13;94.74;101003.69;105717;1264;98489;-78
2024/02/19 07:09:46;;;;;;;22.80;13.50;;;;;;;1.15;94.48;101003.38;105781;1260;102669;-78
2024/02/19 07:12:32;;;;;;;22.70;14.10;;;;;;;1.17;94.44;100999.68;105975;1262;99861;-78
2024/02/19 07:15:18;;;;;;;21.90;13.40;;;;;;;1.20;94.52;100996.30;105688;1262;97966;-77
2024/02/19 07:18:03;;;;;;;22.50;14.20;;;;;;;1.23;94.52;100993.59;105546;1258;97982;-79
2024/02/19 07:20:49;;;;;;;22.50;13.00;;;;;;;1.26;94.50;100990.87;105658;1263;98491;-79
2024/02/19 07:23:35;;;;;;;23.80;13.80;;;;;;;1.30;94.35;100989.17;105702;1261;102691;-78
2024/02/19 07:26:21;;;;;;;20.10;12.40;;;;;;;1.34;94.41;100991.48;105578;1260;99155;-79
2024/02/19 07:29:07;;;;;;;19.50;12.20;;;;;;;1.37;94.52;100991.92;105805;1257;98926;-78
2024/02/19 07:31:53;;;;;;;20.20;13.80;;;;;;;1.42;94.59;100990.15;105727;1262;97899;-78
2024/02/19 07:34:38;;;;;;;24.10;12.70;;;;;;;1.46;94.55;100986.70;105888;1259;97853;-78
2024/02/19 07:37:24;;;;;;;19.30;13.40;;;;;;;1.49;94.45;100986.40;105911;1258;102693;-78
2024/02/19 07:40:09;;;;;;;19.90;12.20;;;;;;;1.53;94.50;100979.91;105903;1260;100396;-79
2024/02/19 07:42:55;;;;;;;16.90;11.50;;;;;;;1.58;94.53;100978.52;105925;1262;97967;-79
2024/02/19 07:45:40;;;;;;;17.80;12.20;;;;;;;1.61;94.45;100976.55;105990;1259;97954;-79
2024/02/19 07:48:26;;;;;;;18.30;11.10;;;;;;;1.62;94.25;100967.80;105774;1257;97975;-78
2024/02/19 07:51:14;;;;;;;20.50;12.10;;;;;;;1.66;94.31;100966.63;105804;1259;102265;-79
2024/02/19 07:54:00;;;;;;;25.80;14.00;;;;;;;1.70;94.55;100964.03;105616;1262;100477;-78
2024/02/19 07:56:45;;;;;;;21.60;12.80;;;;;;;1.74;94.47;100958.91;105262;1258;98629;-78
2024/02/19 07:59:31;;;;;;;18.20;12.00;;;;;;;1.77;94.22;100953.39;105034;1262;99190;-77
2024/02/19 08:02:17;;;;;;;18.20;12.30;;;;;;;1.80;94.15;100956.98;105273;1260;98415;-77
2024/02/19 08:05:03;;;;;;;25.30;14.50;;;;;;;1.83;94.16;100951.83;105830;1259;101383;-79
2024/02/19 08:07:49;;;;;;;29.50;15.40;;;;;;;1.87;94.01;100947.86;105786;1259;99148;-79
2024/02/19 08:10:35;;;;;;;25.60;14.30;;;;;;;1.90;93.99;100944.61;105981;1257;97956;-79
2024/02/19 08:13:21;;;;;;;20.70;13.50;;;;;;;1.92;93.85;100945.52;105728;1260;98053;-78
2024/02/19 08:16:07;;;;;;;27.50;15.30;;;;;;;1.94;93.86;100940.75;105823;1262;98399;-79
2024/02/19 08:18:53;;;;;;;102.00;42.60;;;;;;;1.98;94.01;100942.59;105887;1260;102361;-79
2024/02/19 08:21:38;;;;;;;198.90;68.20;;;;;;;2.01;93.79;100937.88;105629;1262;99048;-77
2024/02/19 08:24:25;;;;;;;116.40;49.40;;;;;;;2.04;93.84;100938.71;105910;1257;97887;-78
2024/02/19 08:27:11;;;;;;;121.40;53.10;;;;;;;2.08;93.77;100934.14;105860;1262;98071;-78
2024/02/19 08:29:56;;;;;;;196.60;73.00;;;;;;;2.10;93.65;100926.05;105687;1262;96138;-81
2024/02/19 08:32:42;;;;;;;301.40;112.60;;;;;;;2.11;93.62;100926.67;106241;1258;102510;-87
2024/02/19 08:35:28;;;;;;;208.80;90.10;;;;;;;2.13;93.64;100920.88;106370;1262;99648;-81
2024/02/19 08:38:13;;;;;;;74.40;40.40;;;;;;;2.16;93.91;100918.64;106351;1260;97990;-80
2024/02/19 08:40:59;;;;;;;36.80;24.10;;;;;;;2.20;94.09;100914.84;106269;1257;97881;-83
2024/02/19 08:43:44;;;;;;;28.30;16.70;;;;;;;2.23;94.24;100916.45;106040;1259;98469;-81
2024/02/19 08:46:30;;;;;;;23.60;15.00;;;;;;;2.27;94.42;100915.60;105986;1259;102597;-76
2024/02/19 08:49:16;;;;;;;22.60;13.40;;;;;;;2.28;94.33;100914.10;106492;1259;99107;-79
2024/02/19 08:52:02;;;;;;;20.80;13.20;;;;;;;2.28;94.64;100911.33;106177;1259;97943;-79
2024/02/19 08:54:49;;;;;;;22.40;13.50;;;;;;;2.29;94.87;100904.54;106137;1262;97906;-80
2024/02/19 08:57:34;;;;;;;31.50;16.90;;;;;;;2.31;95.52;100901.91;105995;1258;98410;-80
2024/02/19 09:00:20;;;;;;;26.00;15.10;;;;;;;2.33;95.96;100897.54;106140;1263;101334;-81
2024/02/19 09:03:06;;;;;;;26.70;16.00;;;;;;;2.35;96.35;100893.14;106102;1257;99175;-79
2024/02/19 09:05:52;;;;;;;21.30;13.80;;;;;;;2.38;96.48;100890.29;105927;1260;99392;-79
2024/02/19 09:08:37;;;;;;;28.90;15.40;;;;;;;2.38;96.63;100880.23;106060;1262;97877;-80
2024/02/19 09:11:23;;;;;;;26.00;16.50;;;;;;;2.39;97.07;100877.43;106374;1257;97875;-79
2024/02/19 09:14:09;;;;;;;22.50;14.20;;;;;;;2.42;97.41;100874.09;106349;1262;102801;-80
2024/02/19 09:16:56;;;;;;;25.30;15.00;;;;;;;2.44;97.40;100873.91;106588;1258;99162;-79
2024/02/19 09:19:42;;;;;;;22.40;14.40;;;;;;;2.46;97.89;100870.03;106052;1259;98458;-79
2024/02/19 09:22:27;;;;;;;21.70;14.10;;;;;;;2.49;98.07;100872.38;105799;1259;97967;-79
2024/02/19 09:25:13;;;;;;;26.20;15.40;;;;;;;2.52;98.12;100871.99;105795;1262;97861;-80
2024/02/19 09:27:59;;;;;;;26.40;15.30;;;;;;;2.53;98.58;100871.13;105813;1259;101427;-79
2024/02/19 09:30:44;;;;;;;26.80;16.20;;;;;;;2.55;98.68;100870.10;105747;1262;99653;-78
2024/02/19 09:33:30;;;;;;;28.50;16.20;;;;;;;2.56;99.03;100864.89;105677;1260;98994;-79
2024/02/19 09:36:17;;;;;;;29.70;17.10;;;;;;;2.57;99.11;100859.39;105560;1258;97901;-79
2024/02/19 09:39:02;;;;;;;25.90;15.60;;;;;;;2.56;99.31;100856.94;106168;1263;98485;-79
2024/02/19 09:41:47;;;;;;;35.80;20.10;;;;;;;2.57;99.44;100856.40;106274;1262;102114;-80
2024/02/19 09:44:33;;;;;;;45.00;23.60;;;;;;;2.57;99.63;100854.58;105724;1262;99077;-79
2024/02/19 09:47:20;;;;;;;60.80;30.90;;;;;;;2.58;99.82;100856.47;106160;1259;99004;-79
2024/02/19 09:50:09;;;;;;;56.00;28.70;;;;;;;2.59;99.89;100853.41;106298;1262;97862;-79
2024/02/19 09:53:07;;;;;;;97.90;43.20;;;;;;;2.59;99.95;100850.71;106266;1260;98511;-79
2024/02/19 09:55:53;;;;;;;38.10;21.50;;;;;;;2.59;100.00;100845.44;106206;1262;103184;-79
2024/02/19 09:58:40;;;;;;;30.40;18.30;;;;;;;2.58;100.00;100847.61;106415;1262;100438;-79
2024/02/19 10:01:26;;;;;;;30.50;17.00;;;;;;;2.59;100.00;100846.48;106644;1261;97885;-80
2024/02/19 10:04:14;;;;;;;26.70;18.60;;;;;;;2.64;100.00;100841.87;105850;1262;98077;-80
2024/02/19 10:07:03;;;;;;;82.60;45.60;;;;;;;2.66;100.00;100838.63;105891;1260;98741;-78
2024/02/19 10:09:50;;;;;;;208.30;111.40;;;;;;;2.66;100.00;100831.77;105533;1262;101346;-84
2024/02/19 10:12:38;;;;;;;289.60;129.70;;;;;;;2.67;100.00;100825.33;105973;1258;100454;-83
2024/02/19 10:15:24;;;;;;;173.40;81.00;;;;;;;2.69;100.00;100822.52;106054;1257;99067;-81
2024/02/19 10:18:18;;;;;;;69.50;37.90;;;;;;;2.70;100.00;100820.11;105739;1263;98065;-82
2024/02/19 10:21:04;;;;;;;56.70;29.20;;;;;;;2.73;100.00;100819.77;105767;1265;98493;-83
2024/02/19 10:23:50;;;;;;;41.20;24.90;;;;;;;2.74;100.00;100815.61;106372;1257;101381;-82
2024/02/19 10:26:35;;;;;;;44.30;24.60;;;;;;;2.75;100.00;100806.66;106047;1262;100391;-87
2024/02/19 10:29:21;;;;;;;42.20;22.80;;;;;;;2.79;100.00;100800.86;105830;1264;99067;-83
2024/02/19 10:32:07;;;;;;;36.70;22.10;;;;;;;2.81;100.00;100796.58;106450;1262;97895;-82
2024/02/19 10:34:52;;;;;;;92.00;45.30;;;;;;;2.83;100.00;100790.46;106089;1262;97964;-80
2024/02/19 10:37:38;;;;;;;49.90;28.10;;;;;;;2.85;100.00;100793.23;106068;1259;101381;-79
2024/02/19 10:40:24;;;;;;;68.70;35.30;;;;;;;2.87;100.00;100793.77;106182;1260;99058;-79
2024/02/19 10:43:11;;;;;;;69.60;34.40;;;;;;;2.89;100.00;100788.90;106362;1262;98382;-79
2024/02/19 10:45:59;;;;;;;49.20;28.40;;;;;;;2.90;100.00;100780.86;106495;1262;97963;-79
2024/02/19 10:48:44;;;;;;;52.60;29.10;;;;;;;2.92;100.00;100772.93;106576;1262;97928;-80
2024/02/19 10:51:30;;;;;;;55.10;29.80;;;;;;;2.94;100.00;100774.11;105889;1262;101341;-79
2024/02/19 10:54:18;;;;;;;66.10;34.10;;;;;;;2.95;100.00;100770.16;106301;1265;99185;-81
2024/02/19 10:57:07;;;;;;;57.00;30.10;;;;;;;2.96;100.00;100761.80;105965;1263;98943;-86
2024/02/19 11:00:11;;;;;;;90.10;46.60;;;;;;;2.98;100.00;100760.02;106008;1265;97940;-81
2024/02/19 11:03:07;;;;;;;55.10;29.40;;;;;;;3.00;100.00;100758.04;106008;1262;99034;-82
2024/02/19 11:06:01;;;;;;;38.70;26.10;;;;;;;3.02;100.00;100756.45;105840;1262;101470;-82
2024/02/19 11:08:52;;;;;;;40.60;26.50;;;;;;;3.04;100.00;100746.57;105514;1265;103218;-81
2024/02/19 11:11:48;;;;;;;41.30;25.70;;;;;;;3.06;100.00;100741.52;105816;1258;98091;-83
2024/02/19 11:14:37;;;;;;;31.50;20.60;;;;;;;3.05;100.00;100735.01;105896;1263;98635;-83
2024/02/19 11:17:26;;;;;;;42.00;30.60;;;;;;;3.04;100.00;100727.68;105935;1263;98206;-80
2024/02/19 11:20:12;;;;;;;35.30;22.50;;;;;;;3.04;100.00;100725.95;105529;1263;102214;-81
2024/02/19 11:22:59;;;;;;;34.20;20.90;;;;;;;3.05;100.00;100724.84;106186;1257;100353;-83
2024/02/19 11:25:48;;;;;;;33.30;21.50;;;;;;;3.05;100.00;100723.95;106009;1263;98075;-81
2024/02/19 11:28:35;;;;;;;39.90;23.60;;;;;;;3.06;100.00;100717.83;105922;1257;97972;-80
2024/02/19 11:31:20;;;;;;;32.60;21.20;;;;;;;3.07;100.00;100715.42;105915;1262;98027;-80
2024/02/19 11:34:26;;;;;;;41.50;22.50;;;;;;;3.08;100.00;100716.10;105945;1259;101480;-81
2024/02/19 11:37:13;;;;;;;33.70;20.60;;;;;;;3.07;100.00;100709.27;105916;1263;99911;-81
2024/02/19 11:39:59;;;;;;;39.10;24.10;;;;;;;3.08;100.00;100704.96;105859;1273;99051;-83
2024/02/19 11:42:49;;;;;;;39.40;24.60;;;;;;;3.09;100.00;100699.59;105884;1262;98625;-81
2024/02/19 11:45:37;;;;;;;38.60;23.70;;;;;;;3.10;100.00;100693.16;106044;1263;98058;-80
2024/02/19 11:48:22;;;;;;;38.90;25.70;;;;;;;3.10;100.00;100689.62;106008;1262;101445;-80
2024/02/19 11:51:09;;;;;;;42.40;27.20;;;;;;;3.12;100.00;100687.67;105961;1265;99815;-80
2024/02/19 11:53:56;;;;;;;47.00;27.10;;;;;;;3.15;100.00;100682.30;105855;1262;98033;-79
2024/02/19 11:56:49;;;;;;;36.30;23.70;;;;;;;3.18;100.00;100678.02;105892;1258;97977;-80
2024/02/19 11:59:38;;;;;;;38.20;23.60;;;;;;;3.19;100.00;100677.84;105764;1265;97881;-82
2024/02/19 12:02:24;;;;;;;40.60;23.90;;;;;;;3.22;100.00;100676.14;105816;1265;102144;-80
2024/02/19 12:05:10;;;;;;;39.40;23.60;;;;;;;3.25;100.00;100670.40;105869;1257;99205;-80
2024/02/19 12:07:56;;;;;;;41.40;23.80;;;;;;;3.29;100.00;100663.06;105801;1257;98038;-81
2024/02/19 12:10:41;;;;;;;39.50;24.70;;;;;;;3.34;100.00;100659.61;105701;1257;98087;-80
2024/02/19 12:13:27;;;;;;;44.00;25.00;;;;;;;3.36;100.00;100653.05;106193;1257;96144;-81
2024/02/19 12:16:12;;;;;;;48.20;28.10;;;;;;;3.37;100.00;100645.70;106240;1257;102704;-81
2024/02/19 12:18:58;;;;;;;44.10;26.40;;;;;;;3.38;100.00;100639.05;106059;1262;99594;-78
2024/02/19 12:21:44;;;;;;;45.70;26.10;;;;;;;3.38;100.00;100631.98;105686;1263;97961;-79
2024/02/19 12:24:30;;;;;;;48.10;28.40;;;;;;;3.38;100.00;100630.59;105696;1263;98016;-84
2024/02/19 12:27:16;;;;;;;46.70;26.70;;;;;;;3.37;100.00;100622.93;105636;1257;98474;-84
2024/02/19 12:30:05;;;;;;;43.80;27.80;;;;;;;3.37;100.00;100619.25;105783;1266;101460;-83